»·PEaware :: EPI191 1S5-KYKM

EPI191 :: 1S5-KYKM

FLIGHT INFORMATION

Flight Status: Arrived
Operator: Unknown
More flights by this operator :: More flights under this callsign
Pilot: Way A. (29578)
Aircraft: CESSNA 172 SKYHAWK
(C172)
More flights by this aircraft type
Origin: 1S5 Sunnyside Mun
United States
Destination: KYKM Yakima Air Term/Mcallister
United States
More flights between these airports :: More routes between these airports
Route: 1S5 KYKM
File this flight plan on PilotEdge
Remarks: VFR
Altitude:
(Current/Filed)
3,000ft
Speed:
(Current/Filed)
110kts
Departed: 15-May-20 04:27 PM
Arrived: 15-May-20 04:45 PM
Distance/Time
Traveled:
28nm/0:18
Distance/Time
To Go:
Arrived

Flight Plot

Page will automatically refresh every two minutes.


Map Options




Map Legend


Flown Route
Filed Route
Departure Airport
Arrival Airport
Navaid (VOR, NDB)
Fix

Horizontal Profiles

Position Reports

Time Latitude Longitude Heading Altitude Ground
Speed
15-May-20 15:54 46.326197 -119.967484 179 769ft 0kts
15-May-20 15:57 46.326197 -119.967484 180 769ft 0kts
15-May-20 15:59 46.326197 -119.967484 180 769ft 0kts
15-May-20 16:00 46.326197 -119.967484 180 769ft 0kts
15-May-20 16:01 46.326197 -119.967484 180 769ft 0kts
15-May-20 16:02 46.326197 -119.967484 180 769ft 0kts
15-May-20 16:03 46.326197 -119.967484 180 769ft 0kts
15-May-20 16:04 46.326197 -119.967484 180 769ft 0kts
15-May-20 16:05 46.326197 -119.967484 180 769ft 0kts
15-May-20 16:06 46.326197 -119.967484 180 769ft 0kts
15-May-20 16:07 46.326197 -119.967484 180 769ft 0kts
15-May-20 16:08 46.326197 -119.967484 180 769ft 0kts
15-May-20 16:09 46.326197 -119.967484 179 769ft 0kts
15-May-20 16:10 46.326039 -119.967757 68 768ft 4kts
15-May-20 16:11 46.326441 -119.967945 272 770ft 10kts
15-May-20 16:12 46.326493 -119.976351 267 770ft 4kts
15-May-20 16:13 46.327218 -119.976588 92 771ft 9kts
15-May-20 16:14 46.326197 -119.967484 180 769ft 0kts
15-May-20 16:15 46.326197 -119.967484 180 769ft 0kts
15-May-20 16:16 46.326197 -119.967484 180 769ft 0kts
15-May-20 16:17 46.326197 -119.967484 179 769ft 0kts
15-May-20 16:18 46.326197 -119.967484 179 769ft 0kts
15-May-20 16:19 46.326197 -119.967484 179 769ft 0kts
15-May-20 16:20 46.326197 -119.967484 179 769ft 0kts
15-May-20 16:21 46.326254 -119.967603 67 769ft 3kts
15-May-20 16:22 46.326624 -119.966836 35 771ft 0kts
15-May-20 16:23 46.326716 -119.964509 62 771ft 0kts
15-May-20 16:24 46.326716 -119.964509 62 771ft 0kts
15-May-20 16:25 46.327109 -119.965037 263 771ft 18kts
15-May-20 16:26 46.328461 -119.993463 275 1211ft 88kts
15-May-20 16:27 46.334704 -120.028763 288 1901ft 89kts
15-May-20 16:28 46.340719 -120.065675 280 2391ft 92kts
15-May-20 16:29 46.352169 -120.099937 313 2858ft 94kts
15-May-20 16:30 46.370978 -120.128150 318 3201ft 97kts
15-May-20 16:31 46.394178 -120.150932 325 3447ft 96kts
15-May-20 16:32 46.417667 -120.172458 334 3613ft 98kts
15-May-20 16:33 46.432997 -120.202990 283 3701ft 102kts
15-May-20 16:35 46.444246 -120.242394 297 3575ft 114kts
15-May-20 16:36 46.462837 -120.282362 311 2802ft 115kts
15-May-20 16:37 46.482484 -120.318193 312 2237ft 107kts
15-May-20 16:38 46.501170 -120.351565 308 1818ft 92kts
15-May-20 16:39 46.518481 -120.377936 319 1598ft 82kts
15-May-20 16:40 46.531715 -120.401847 290 1653ft 68kts
15-May-20 16:41 46.537681 -120.429823 294 1855ft 73kts
15-May-20 16:42 46.548281 -120.457724 302 2078ft 80kts
15-May-20 16:43 46.556026 -120.487935 275 2109ft 92kts
15-May-20 16:44 46.563657 -120.524204 290 1321ft 74kts
15-May-20 16:45 46.568491 -120.542276 336 1065ft 14kts
15-May-20 16:46 46.569049 -120.542053 36 1066ft 0kts
15-May-20 16:47 46.569050 -120.542052 35 1066ft 0kts
15-May-20 16:47 46.569754 -120.541609 11 1066ft 0kts
15-May-20 16:49 46.569771 -120.541604 10 1066ft 0kts
15-May-20 16:50 46.569771 -120.541604 10 1066ft 0kts
15-May-20 16:50 46.569771 -120.541604 10 1066ft 0kts
15-May-20 16:52 46.569771 -120.541604 10 1066ft 0kts
15-May-20 16:52 46.569771 -120.541604 10 1066ft 0kts
15-May-20 16:53 46.569771 -120.541604 10 1066ft 0kts
15-May-20 16:55 46.569340 -120.541771 57 1066ft 0kts
15-May-20 16:55 46.569340 -120.541771 57 1066ft 0kts
15-May-20 16:56 46.569340 -120.541771 57 1066ft 0kts
15-May-20 16:58 46.569340 -120.541771 57 1066ft 0kts
15-May-20 16:58 46.569348 -120.541755 56 1066ft 0kts

Navigation Log

Ident Type
Flight plan parsing failed, navigation log unavailable